sensor_id;sensor_type;location;lat;lon;timestamp;temperature;humidity
38684;DHT22;24910;53.248;-6.134;2023-03-15T00:02:09;6.00;75.40
38684;DHT22;24910;53.248;-6.134;2023-03-15T00:04:38;6.00;75.50
38684;DHT22;24910;53.248;-6.134;2023-03-15T00:07:10;5.90;75.50
38684;DHT22;24910;53.248;-6.134;2023-03-15T00:09:39;5.90;75.60
38684;DHT22;24910;53.248;-6.134;2023-03-15T00:12:12;5.90;75.70
38684;DHT22;24910;53.248;-6.134;2023-03-15T00:14:41;5.90;75.90
38684;DHT22;24910;53.248;-6.134;2023-03-15T00:17:10;5.90;75.90
38684;DHT22;24910;53.248;-6.134;2023-03-15T00:19:39;5.90;75.90
38684;DHT22;24910;53.248;-6.134;2023-03-15T00:22:10;5.80;75.90
38684;DHT22;24910;53.248;-6.134;2023-03-15T00:24:39;5.80;76.00
38684;DHT22;24910;53.248;-6.134;2023-03-15T00:27:08;5.80;76.10
38684;DHT22;24910;53.248;-6.134;2023-03-15T00:29:39;5.80;76.20
38684;DHT22;24910;53.248;-6.134;2023-03-15T00:32:13;5.70;76.20
38684;DHT22;24910;53.248;-6.134;2023-03-15T00:34:42;5.70;76.20
38684;DHT22;24910;53.248;-6.134;2023-03-15T00:37:17;5.70;76.30
38684;DHT22;24910;53.248;-6.134;2023-03-15T00:39:47;5.70;76.30
38684;DHT22;24910;53.248;-6.134;2023-03-15T00:42:17;5.60;76.30
38684;DHT22;24910;53.248;-6.134;2023-03-15T00:44:46;5.60;76.30
38684;DHT22;24910;53.248;-6.134;2023-03-15T00:47:15;5.50;76.30
38684;DHT22;24910;53.248;-6.134;2023-03-15T00:49:44;5.40;76.60
38684;DHT22;24910;53.248;-6.134;2023-03-15T00:52:14;5.30;76.60
38684;DHT22;24910;53.248;-6.134;2023-03-15T00:54:51;5.40;76.70
38684;DHT22;24910;53.248;-6.134;2023-03-15T00:57:21;5.40;76.70
38684;DHT22;24910;53.248;-6.134;2023-03-15T00:59:50;5.40;76.70
38684;DHT22;24910;53.248;-6.134;2023-03-15T01:02:19;5.40;76.60
38684;DHT22;24910;53.248;-6.134;2023-03-15T01:04:49;5.40;76.70
38684;DHT22;24910;53.248;-6.134;2023-03-15T01:07:19;5.50;76.70
38684;DHT22;24910;53.248;-6.134;2023-03-15T01:09:48;5.50;76.70
38684;DHT22;24910;53.248;-6.134;2023-03-15T01:12:18;5.50;76.60
38684;DHT22;24910;53.248;-6.134;2023-03-15T01:14:47;5.50;76.60
38684;DHT22;24910;53.248;-6.134;2023-03-15T01:17:24;5.40;76.60
38684;DHT22;24910;53.248;-6.134;2023-03-15T01:19:53;5.40;76.70
38684;DHT22;24910;53.248;-6.134;2023-03-15T01:22:22;5.30;76.60
38684;DHT22;24910;53.248;-6.134;2023-03-15T01:24:51;5.30;76.80
38684;DHT22;24910;53.248;-6.134;2023-03-15T01:27:24;5.30;76.80
38684;DHT22;24910;53.248;-6.134;2023-03-15T01:29:57;5.20;76.90
38684;DHT22;24910;53.248;-6.134;2023-03-15T01:32:26;5.20;77.00
38684;DHT22;24910;53.248;-6.134;2023-03-15T01:34:56;5.20;77.00
38684;DHT22;24910;53.248;-6.134;2023-03-15T01:37:25;5.20;76.90
38684;DHT22;24910;53.248;-6.134;2023-03-15T01:39:54;5.10;76.90
38684;DHT22;24910;53.248;-6.134;2023-03-15T01:42:26;5.10;77.00
38684;DHT22;24910;53.248;-6.134;2023-03-15T01:44:58;5.10;77.00
38684;DHT22;24910;53.248;-6.134;2023-03-15T01:47:27;5.10;76.90
38684;DHT22;24910;53.248;-6.134;2023-03-15T01:50:02;5.10;77.00
38684;DHT22;24910;53.248;-6.134;2023-03-15T01:52:36;5.10;77.00
38684;DHT22;24910;53.248;-6.134;2023-03-15T01:55:07;5.10;77.20
38684;DHT22;24910;53.248;-6.134;2023-03-15T01:57:47;5.10;77.30
38684;DHT22;24910;53.248;-6.134;2023-03-15T02:00:19;5.10;77.40
38684;DHT22;24910;53.248;-6.134;2023-03-15T02:02:59;5.10;77.30
38684;DHT22;24910;53.248;-6.134;2023-03-15T02:05:33;5.00;77.30
38684;DHT22;24910;53.248;-6.134;2023-03-15T02:08:06;5.10;77.40
38684;DHT22;24910;53.248;-6.134;2023-03-15T02:10:42;5.10;77.50
38684;DHT22;24910;53.248;-6.134;2023-03-15T02:13:17;5.10;77.50
38684;DHT22;24910;53.248;-6.134;2023-03-15T02:15:46;5.10;77.60
38684;DHT22;24910;53.248;-6.134;2023-03-15T02:18:24;5.10;77.60
38684;DHT22;24910;53.248;-6.134;2023-03-15T02:20:59;5.10;77.50
38684;DHT22;24910;53.248;-6.134;2023-03-15T02:23:29;5.10;77.60
38684;DHT22;24910;53.248;-6.134;2023-03-15T02:26:07;5.10;77.60
38684;DHT22;24910;53.248;-6.134;2023-03-15T02:28:40;5.00;77.60
38684;DHT22;24910;53.248;-6.134;2023-03-15T02:31:09;5.00;77.60
38684;DHT22;24910;53.248;-6.134;2023-03-15T02:33:42;5.10;78.60
38684;DHT22;24910;53.248;-6.134;2023-03-15T02:36:17;5.00;77.80
38684;DHT22;24910;53.248;-6.134;2023-03-15T02:38:48;5.00;77.80
38684;DHT22;24910;53.248;-6.134;2023-03-15T02:41:20;5.10;78.00
38684;DHT22;24910;53.248;-6.134;2023-03-15T02:43:54;5.10;78.10
38684;DHT22;24910;53.248;-6.134;2023-03-15T02:46:26;5.10;78.10
38684;DHT22;24910;53.248;-6.134;2023-03-15T02:48:56;5.10;78.30
38684;DHT22;24910;53.248;-6.134;2023-03-15T02:51:27;5.10;78.40
38684;DHT22;24910;53.248;-6.134;2023-03-15T02:53:57;5.20;78.30
38684;DHT22;24910;53.248;-6.134;2023-03-15T02:56:26;5.20;78.10
38684;DHT22;24910;53.248;-6.134;2023-03-15T02:58:56;5.20;78.10
38684;DHT22;24910;53.248;-6.134;2023-03-15T03:01:25;5.20;78.10
38684;DHT22;24910;53.248;-6.134;2023-03-15T03:03:54;5.10;78.20
38684;DHT22;24910;53.248;-6.134;2023-03-15T03:06:24;5.10;78.30
38684;DHT22;24910;53.248;-6.134;2023-03-15T03:08:53;5.10;78.50
38684;DHT22;24910;53.248;-6.134;2023-03-15T03:11:23;5.10;78.50
38684;DHT22;24910;53.248;-6.134;2023-03-15T03:13:58;5.10;78.50
38684;DHT22;24910;53.248;-6.134;2023-03-15T03:16:27;5.10;78.60
38684;DHT22;24910;53.248;-6.134;2023-03-15T03:18:59;5.10;79.50
38684;DHT22;24910;53.248;-6.134;2023-03-15T03:21:30;5.10;78.70
38684;DHT22;24910;53.248;-6.134;2023-03-15T03:23:59;5.20;78.80
38684;DHT22;24910;53.248;-6.134;2023-03-15T03:26:28;5.20;78.90
38684;DHT22;24910;53.248;-6.134;2023-03-15T03:29:01;5.10;79.00
38684;DHT22;24910;53.248;-6.134;2023-03-15T03:31:30;5.10;79.00
38684;DHT22;24910;53.248;-6.134;2023-03-15T03:34:01;5.10;79.10
38684;DHT22;24910;53.248;-6.134;2023-03-15T03:36:30;5.10;79.10
38684;DHT22;24910;53.248;-6.134;2023-03-15T03:38:59;5.10;79.00
38684;DHT22;24910;53.248;-6.134;2023-03-15T03:41:28;5.20;79.00
38684;DHT22;24910;53.248;-6.134;2023-03-15T03:43:57;5.20;79.00
38684;DHT22;24910;53.248;-6.134;2023-03-15T03:46:28;5.20;79.10
38684;DHT22;24910;53.248;-6.134;2023-03-15T03:48:57;5.20;79.20
38684;DHT22;24910;53.248;-6.134;2023-03-15T03:51:27;5.20;79.20
38684;DHT22;24910;53.248;-6.134;2023-03-15T03:53:56;5.20;79.30
38684;DHT22;24910;53.248;-6.134;2023-03-15T03:56:26;5.20;79.40
38684;DHT22;24910;53.248;-6.134;2023-03-15T03:58:55;5.20;79.50
38684;DHT22;24910;53.248;-6.134;2023-03-15T04:01:33;5.20;79.50
38684;DHT22;24910;53.248;-6.134;2023-03-15T04:04:03;5.20;79.50
38684;DHT22;24910;53.248;-6.134;2023-03-15T04:06:33;5.20;79.40
38684;DHT22;24910;53.248;-6.134;2023-03-15T04:09:02;5.20;79.40
38684;DHT22;24910;53.248;-6.134;2023-03-15T04:11:39;5.20;79.40
38684;DHT22;24910;53.248;-6.134;2023-03-15T04:14:10;5.30;79.40
38684;DHT22;24910;53.248;-6.134;2023-03-15T04:16:42;5.30;79.40
38684;DHT22;24910;53.248;-6.134;2023-03-15T04:19:13;5.30;79.30
38684;DHT22;24910;53.248;-6.134;2023-03-15T04:21:43;5.30;79.30
38684;DHT22;24910;53.248;-6.134;2023-03-15T04:24:40;5.40;79.30
38684;DHT22;24910;53.248;-6.134;2023-03-15T04:27:13;5.30;79.20
38684;DHT22;24910;53.248;-6.134;2023-03-15T04:30:03;5.40;79.20
38684;DHT22;24910;53.248;-6.134;2023-03-15T04:33:03;5.40;79.30
38684;DHT22;24910;53.248;-6.134;2023-03-15T04:36:05;5.40;79.20
38684;DHT22;24910;53.248;-6.134;2023-03-15T04:38:55;5.50;79.20
38684;DHT22;24910;53.248;-6.134;2023-03-15T04:41:47;5.50;79.10
38684;DHT22;24910;53.248;-6.134;2023-03-15T04:44:39;5.50;79.10
38684;DHT22;24910;53.248;-6.134;2023-03-15T04:47:33;5.50;79.00
38684;DHT22;24910;53.248;-6.134;2023-03-15T04:50:31;5.60;78.90
38684;DHT22;24910;53.248;-6.134;2023-03-15T04:53:10;5.60;78.90
38684;DHT22;24910;53.248;-6.134;2023-03-15T04:55:58;5.60;78.90
38684;DHT22;24910;53.248;-6.134;2023-03-15T04:58:54;5.60;78.90
38684;DHT22;24910;53.248;-6.134;2023-03-15T05:01:41;5.60;78.80
38684;DHT22;24910;53.248;-6.134;2023-03-15T05:04:27;5.60;78.70
38684;DHT22;24910;53.248;-6.134;2023-03-15T05:07:18;5.60;78.70
38684;DHT22;24910;53.248;-6.134;2023-03-15T05:10:19;5.70;78.80
38684;DHT22;24910;53.248;-6.134;2023-03-15T05:13:17;5.70;78.80
38684;DHT22;24910;53.248;-6.134;2023-03-15T05:16:10;5.70;78.70
38684;DHT22;24910;53.248;-6.134;2023-03-15T05:19:09;5.70;78.70
38684;DHT22;24910;53.248;-6.134;2023-03-15T05:21:46;5.70;78.70
38684;DHT22;24910;53.248;-6.134;2023-03-15T05:24:32;5.60;78.60
38684;DHT22;24910;53.248;-6.134;2023-03-15T05:27:21;5.60;78.70
38684;DHT22;24910;53.248;-6.134;2023-03-15T05:30:06;5.70;78.80
38684;DHT22;24910;53.248;-6.134;2023-03-15T05:32:56;5.70;78.80
38684;DHT22;24910;53.248;-6.134;2023-03-15T05:35:37;5.70;78.90
38684;DHT22;24910;53.248;-6.134;2023-03-15T05:38:17;5.70;79.00
38684;DHT22;24910;53.248;-6.134;2023-03-15T05:41:05;5.70;79.00
38684;DHT22;24910;53.248;-6.134;2023-03-15T05:43:53;5.80;79.10
38684;DHT22;24910;53.248;-6.134;2023-03-15T05:46:49;5.80;79.00
38684;DHT22;24910;53.248;-6.134;2023-03-15T05:49:53;5.80;78.90
38684;DHT22;24910;53.248;-6.134;2023-03-15T05:52:52;5.80;78.90
38684;DHT22;24910;53.248;-6.134;2023-03-15T05:55:36;5.90;79.00
38684;DHT22;24910;53.248;-6.134;2023-03-15T05:58:29;5.90;79.00
38684;DHT22;24910;53.248;-6.134;2023-03-15T06:01:05;5.90;79.00
38684;DHT22;24910;53.248;-6.134;2023-03-15T06:03:57;6.00;79.10
38684;DHT22;24910;53.248;-6.134;2023-03-15T06:06:30;6.00;79.00
38684;DHT22;24910;53.248;-6.134;2023-03-15T06:09:01;6.00;78.90
38684;DHT22;24910;53.248;-6.134;2023-03-15T06:11:31;6.10;78.70
38684;DHT22;24910;53.248;-6.134;2023-03-15T06:14:02;6.10;78.70
38684;DHT22;24910;53.248;-6.134;2023-03-15T06:16:37;6.20;78.80
38684;DHT22;24910;53.248;-6.134;2023-03-15T06:19:08;6.20;78.70
38684;DHT22;24910;53.248;-6.134;2023-03-15T06:21:38;6.20;78.60
38684;DHT22;24910;53.248;-6.134;2023-03-15T06:24:21;6.20;78.60
38684;DHT22;24910;53.248;-6.134;2023-03-15T06:26:52;6.20;78.60
38684;DHT22;24910;53.248;-6.134;2023-03-15T06:29:24;6.20;78.50
38684;DHT22;24910;53.248;-6.134;2023-03-15T06:31:55;6.30;78.50
38684;DHT22;24910;53.248;-6.134;2023-03-15T06:34:26;6.30;78.40
38684;DHT22;24910;53.248;-6.134;2023-03-15T06:36:55;6.30;78.30
38684;DHT22;24910;53.248;-6.134;2023-03-15T06:39:24;6.30;78.30
38684;DHT22;24910;53.248;-6.134;2023-03-15T06:41:53;6.30;78.30
38684;DHT22;24910;53.248;-6.134;2023-03-15T06:44:28;6.30;78.20
38684;DHT22;24910;53.248;-6.134;2023-03-15T06:47:04;6.30;78.20
38684;DHT22;24910;53.248;-6.134;2023-03-15T06:49:34;6.40;78.20
38684;DHT22;24910;53.248;-6.134;2023-03-15T06:52:06;6.40;78.10
38684;DHT22;24910;53.248;-6.134;2023-03-15T06:54:35;6.40;78.20
38684;DHT22;24910;53.248;-6.134;2023-03-15T06:57:04;6.40;78.20
38684;DHT22;24910;53.248;-6.134;2023-03-15T06:59:35;6.40;78.20
38684;DHT22;24910;53.248;-6.134;2023-03-15T07:02:04;6.50;78.30
38684;DHT22;24910;53.248;-6.134;2023-03-15T07:04:33;6.50;78.30
38684;DHT22;24910;53.248;-6.134;2023-03-15T07:07:03;6.50;78.20
38684;DHT22;24910;53.248;-6.134;2023-03-15T07:09:33;6.50;78.30
38684;DHT22;24910;53.248;-6.134;2023-03-15T07:12:02;6.50;78.30
38684;DHT22;24910;53.248;-6.134;2023-03-15T07:14:32;6.50;78.30
38684;DHT22;24910;53.248;-6.134;2023-03-15T07:17:03;6.50;78.40
38684;DHT22;24910;53.248;-6.134;2023-03-15T07:19:32;6.50;78.50
38684;DHT22;24910;53.248;-6.134;2023-03-15T07:22:08;6.50;78.60
38684;DHT22;24910;53.248;-6.134;2023-03-15T07:24:37;6.50;78.80
38684;DHT22;24910;53.248;-6.134;2023-03-15T07:27:06;6.50;79.00
38684;DHT22;24910;53.248;-6.134;2023-03-15T07:29:35;6.50;79.00
38684;DHT22;24910;53.248;-6.134;2023-03-15T07:32:06;6.50;79.30
38684;DHT22;24910;53.248;-6.134;2023-03-15T07:34:35;6.40;79.40
38684;DHT22;24910;53.248;-6.134;2023-03-15T07:37:04;6.50;79.60
38684;DHT22;24910;53.248;-6.134;2023-03-15T07:39:33;6.50;79.80
38684;DHT22;24910;53.248;-6.134;2023-03-15T07:42:03;6.50;80.00
38684;DHT22;24910;53.248;-6.134;2023-03-15T07:44:40;6.50;80.20
38684;DHT22;24910;53.248;-6.134;2023-03-15T07:47:10;6.50;80.50
38684;DHT22;24910;53.248;-6.134;2023-03-15T07:49:39;6.40;80.70
38684;DHT22;24910;53.248;-6.134;2023-03-15T07:52:09;6.40;80.90
38684;DHT22;24910;53.248;-6.134;2023-03-15T07:54:38;6.40;81.20
38684;DHT22;24910;53.248;-6.134;2023-03-15T07:57:09;6.40;81.40
38684;DHT22;24910;53.248;-6.134;2023-03-15T07:59:38;6.40;81.60
38684;DHT22;24910;53.248;-6.134;2023-03-15T08:02:11;6.40;81.80
38684;DHT22;24910;53.248;-6.134;2023-03-15T08:04:41;6.50;82.00
38684;DHT22;24910;53.248;-6.134;2023-03-15T08:07:11;6.50;82.20
38684;DHT22;24910;53.248;-6.134;2023-03-15T08:09:40;6.40;82.30
38684;DHT22;24910;53.248;-6.134;2023-03-15T08:12:10;6.40;82.50
38684;DHT22;24910;53.248;-6.134;2023-03-15T08:14:40;6.50;82.70
38684;DHT22;24910;53.248;-6.134;2023-03-15T08:17:10;6.40;82.90
38684;DHT22;24910;53.248;-6.134;2023-03-15T08:19:39;6.50;83.20
38684;DHT22;24910;53.248;-6.134;2023-03-15T08:22:09;6.50;83.40
38684;DHT22;24910;53.248;-6.134;2023-03-15T08:24:41;6.50;83.50
38684;DHT22;24910;53.248;-6.134;2023-03-15T08:27:12;6.50;83.70
38684;DHT22;24910;53.248;-6.134;2023-03-15T08:29:41;6.50;83.90
38684;DHT22;24910;53.248;-6.134;2023-03-15T08:32:12;6.50;84.10
38684;DHT22;24910;53.248;-6.134;2023-03-15T08:34:41;6.50;84.20
38684;DHT22;24910;53.248;-6.134;2023-03-15T08:37:10;6.50;84.40
38684;DHT22;24910;53.248;-6.134;2023-03-15T08:39:39;6.50;84.60
38684;DHT22;24910;53.248;-6.134;2023-03-15T08:42:09;6.50;84.80
38684;DHT22;24910;53.248;-6.134;2023-03-15T08:44:38;6.60;85.00
38684;DHT22;24910;53.248;-6.134;2023-03-15T08:47:07;6.60;85.80
38684;DHT22;24910;53.248;-6.134;2023-03-15T08:49:38;6.70;85.00
38684;DHT22;24910;53.248;-6.134;2023-03-15T08:52:07;6.70;85.00
38684;DHT22;24910;53.248;-6.134;2023-03-15T08:54:36;6.80;85.10
38684;DHT22;24910;53.248;-6.134;2023-03-15T08:57:08;6.80;85.20
38684;DHT22;24910;53.248;-6.134;2023-03-15T08:59:39;6.90;85.40
38684;DHT22;24910;53.248;-6.134;2023-03-15T09:02:09;6.90;85.50
38684;DHT22;24910;53.248;-6.134;2023-03-15T09:04:40;7.00;85.60
38684;DHT22;24910;53.248;-6.134;2023-03-15T09:07:10;7.00;85.50
38684;DHT22;24910;53.248;-6.134;2023-03-15T09:09:40;7.00;85.70
38684;DHT22;24910;53.248;-6.134;2023-03-15T09:12:15;7.00;86.00
38684;DHT22;24910;53.248;-6.134;2023-03-15T09:14:44;7.00;86.20
38684;DHT22;24910;53.248;-6.134;2023-03-15T09:17:13;7.00;86.40
38684;DHT22;24910;53.248;-6.134;2023-03-15T09:19:43;7.00;86.50
38684;DHT22;24910;53.248;-6.134;2023-03-15T09:22:12;7.00;86.70
38684;DHT22;24910;53.248;-6.134;2023-03-15T09:24:50;7.00;86.80
38684;DHT22;24910;53.248;-6.134;2023-03-15T09:27:19;7.00;87.00
38684;DHT22;24910;53.248;-6.134;2023-03-15T09:29:48;7.00;87.10
38684;DHT22;24910;53.248;-6.134;2023-03-15T09:32:17;7.10;87.30
38684;DHT22;24910;53.248;-6.134;2023-03-15T09:34:50;7.10;87.40
38684;DHT22;24910;53.248;-6.134;2023-03-15T09:37:19;7.20;87.60
38684;DHT22;24910;53.248;-6.134;2023-03-15T09:39:48;7.20;87.70
38684;DHT22;24910;53.248;-6.134;2023-03-15T09:42:24;7.20;87.90
38684;DHT22;24910;53.248;-6.134;2023-03-15T09:45:03;7.20;88.10
38684;DHT22;24910;53.248;-6.134;2023-03-15T09:47:41;7.20;88.30
38684;DHT22;24910;53.248;-6.134;2023-03-15T09:50:19;7.20;88.40
38684;DHT22;24910;53.248;-6.134;2023-03-15T09:52:56;7.20;88.60
38684;DHT22;24910;53.248;-6.134;2023-03-15T09:55:29;7.20;88.70
38684;DHT22;24910;53.248;-6.134;2023-03-15T09:57:59;7.30;88.90
38684;DHT22;24910;53.248;-6.134;2023-03-15T10:00:37;7.30;89.00
38684;DHT22;24910;53.248;-6.134;2023-03-15T10:03:12;7.30;89.10
38684;DHT22;24910;53.248;-6.134;2023-03-15T10:05:48;7.30;89.30
38684;DHT22;24910;53.248;-6.134;2023-03-15T10:08:20;7.30;89.50
38684;DHT22;24910;53.248;-6.134;2023-03-15T10:10:52;7.30;89.70
38684;DHT22;24910;53.248;-6.134;2023-03-15T10:13:33;7.30;89.90
38684;DHT22;24910;53.248;-6.134;2023-03-15T10:16:14;7.40;90.10
38684;DHT22;24910;53.248;-6.134;2023-03-15T10:18:56;7.30;90.10
38684;DHT22;24910;53.248;-6.134;2023-03-15T10:21:32;7.40;90.20
38684;DHT22;24910;53.248;-6.134;2023-03-15T10:24:13;7.40;90.30
38684;DHT22;24910;53.248;-6.134;2023-03-15T10:26:44;7.40;90.60
38684;DHT22;24910;53.248;-6.134;2023-03-15T10:29:20;7.40;90.30
38684;DHT22;24910;53.248;-6.134;2023-03-15T10:31:53;7.40;90.40
38684;DHT22;24910;53.248;-6.134;2023-03-15T10:34:23;7.50;90.50
38684;DHT22;24910;53.248;-6.134;2023-03-15T10:36:55;7.40;90.60
38684;DHT22;24910;53.248;-6.134;2023-03-15T10:39:24;7.50;90.70
38684;DHT22;24910;53.248;-6.134;2023-03-15T10:41:53;7.50;90.80
38684;DHT22;24910;53.248;-6.134;2023-03-15T10:44:24;7.50;90.90
38684;DHT22;24910;53.248;-6.134;2023-03-15T10:47:03;7.50;90.90
38684;DHT22;24910;53.248;-6.134;2023-03-15T10:49:50;7.60;91.00
38684;DHT22;24910;53.248;-6.134;2023-03-15T10:52:27;7.60;91.10
38684;DHT22;24910;53.248;-6.134;2023-03-15T10:55:06;7.60;91.10
38684;DHT22;24910;53.248;-6.134;2023-03-15T10:57:40;7.70;91.30
38684;DHT22;24910;53.248;-6.134;2023-03-15T11:00:24;7.70;91.30
38684;DHT22;24910;53.248;-6.134;2023-03-15T11:03:01;7.70;91.30
38684;DHT22;24910;53.248;-6.134;2023-03-15T11:05:32;7.80;91.40
38684;DHT22;24910;53.248;-6.134;2023-03-15T11:08:11;7.80;91.50
38684;DHT22;24910;53.248;-6.134;2023-03-15T11:10:43;7.90;91.60
38684;DHT22;24910;53.248;-6.134;2023-03-15T11:13:18;7.90;91.60
38684;DHT22;24910;53.248;-6.134;2023-03-15T11:16:00;8.00;91.70
38684;DHT22;24910;53.248;-6.134;2023-03-15T11:18:36;8.00;91.70
38684;DHT22;24910;53.248;-6.134;2023-03-15T11:21:08;8.10;91.70
38684;DHT22;24910;53.248;-6.134;2023-03-15T11:23:41;8.10;91.70
38684;DHT22;24910;53.248;-6.134;2023-03-15T11:26:15;8.10;91.80
38684;DHT22;24910;53.248;-6.134;2023-03-15T11:29:00;8.10;91.80
38684;DHT22;24910;53.248;-6.134;2023-03-15T11:31:31;8.20;91.90
38684;DHT22;24910;53.248;-6.134;2023-03-15T11:34:05;8.20;91.90
38684;DHT22;24910;53.248;-6.134;2023-03-15T11:36:39;8.20;92.00
38684;DHT22;24910;53.248;-6.134;2023-03-15T11:39:13;8.30;92.00
38684;DHT22;24910;53.248;-6.134;2023-03-15T11:41:46;8.30;92.00
38684;DHT22;24910;53.248;-6.134;2023-03-15T11:44:24;8.30;92.10
38684;DHT22;24910;53.248;-6.134;2023-03-15T11:46:59;8.40;92.20
38684;DHT22;24910;53.248;-6.134;2023-03-15T11:49:34;8.40;92.20
38684;DHT22;24910;53.248;-6.134;2023-03-15T11:52:05;8.40;92.30
38684;DHT22;24910;53.248;-6.134;2023-03-15T11:54:38;8.40;92.30
38684;DHT22;24910;53.248;-6.134;2023-03-15T11:57:35;8.50;92.40
38684;DHT22;24910;53.248;-6.134;2023-03-15T12:03:23;8.50;92.50
38684;DHT22;24910;53.248;-6.134;2023-03-15T12:06:04;8.60;92.60
38684;DHT22;24910;53.248;-6.134;2023-03-15T12:08:43;8.60;92.60
38684;DHT22;24910;53.248;-6.134;2023-03-15T12:11:37;8.60;92.60
38684;DHT22;24910;53.248;-6.134;2023-03-15T12:14:24;8.60;92.70
38684;DHT22;24910;53.248;-6.134;2023-03-15T12:17:35;8.70;92.70
38684;DHT22;24910;53.248;-6.134;2023-03-15T12:20:16;8.70;92.80
38684;DHT22;24910;53.248;-6.134;2023-03-15T12:22:52;8.70;92.80
38684;DHT22;24910;53.248;-6.134;2023-03-15T12:25:31;8.80;92.90
38684;DHT22;24910;53.248;-6.134;2023-03-15T12:28:28;8.80;92.90
38684;DHT22;24910;53.248;-6.134;2023-03-15T12:31:01;8.80;92.90
38684;DHT22;24910;53.248;-6.134;2023-03-15T12:33:45;8.80;93.00
38684;DHT22;24910;53.248;-6.134;2023-03-15T12:36:20;8.80;93.10
38684;DHT22;24910;53.248;-6.134;2023-03-15T12:39:00;8.80;93.10
38684;DHT22;24910;53.248;-6.134;2023-03-15T12:41:36;8.80;93.10
38684;DHT22;24910;53.248;-6.134;2023-03-15T12:44:38;8.80;93.10
38684;DHT22;24910;53.248;-6.134;2023-03-15T12:47:08;8.90;93.30
38684;DHT22;24910;53.248;-6.134;2023-03-15T12:49:40;8.80;93.20
38684;DHT22;24910;53.248;-6.134;2023-03-15T12:52:34;8.90;93.30
38684;DHT22;24910;53.248;-6.134;2023-03-15T12:55:13;8.90;93.40
38684;DHT22;24910;53.248;-6.134;2023-03-15T12:57:48;9.00;93.40
38684;DHT22;24910;53.248;-6.134;2023-03-15T13:00:22;9.00;93.40
38684;DHT22;24910;53.248;-6.134;2023-03-15T13:03:03;9.00;93.40
38684;DHT22;24910;53.248;-6.134;2023-03-15T13:05:35;9.10;93.50
38684;DHT22;24910;53.248;-6.134;2023-03-15T13:08:19;9.20;93.50
38684;DHT22;24910;53.248;-6.134;2023-03-15T13:11:05;9.20;93.50
38684;DHT22;24910;53.248;-6.134;2023-03-15T13:13:54;9.30;93.60
38684;DHT22;24910;53.248;-6.134;2023-03-15T13:16:33;9.30;93.60
38684;DHT22;24910;53.248;-6.134;2023-03-15T13:19:15;9.40;93.60
38684;DHT22;24910;53.248;-6.134;2023-03-15T13:22:04;9.40;93.60
38684;DHT22;24910;53.248;-6.134;2023-03-15T13:24:42;9.40;93.50
38684;DHT22;24910;53.248;-6.134;2023-03-15T13:27:20;9.50;93.50
38684;DHT22;24910;53.248;-6.134;2023-03-15T13:29:53;9.50;93.50
38684;DHT22;24910;53.248;-6.134;2023-03-15T13:32:24;9.50;93.50
38684;DHT22;24910;53.248;-6.134;2023-03-15T13:34:56;9.50;93.50
38684;DHT22;24910;53.248;-6.134;2023-03-15T13:37:25;9.50;93.50
38684;DHT22;24910;53.248;-6.134;2023-03-15T13:39:58;9.40;93.50
38684;DHT22;24910;53.248;-6.134;2023-03-15T13:42:28;9.40;93.50
38684;DHT22;24910;53.248;-6.134;2023-03-15T13:45:10;9.40;93.50
38684;DHT22;24910;53.248;-6.134;2023-03-15T13:47:43;9.40;93.50
38684;DHT22;24910;53.248;-6.134;2023-03-15T13:50:13;9.40;93.40
38684;DHT22;24910;53.248;-6.134;2023-03-15T13:52:43;9.40;93.40
38684;DHT22;24910;53.248;-6.134;2023-03-15T13:55:14;9.40;93.50
38684;DHT22;24910;53.248;-6.134;2023-03-15T13:57:43;9.40;93.50
38684;DHT22;24910;53.248;-6.134;2023-03-15T14:00:17;9.40;93.40
38684;DHT22;24910;53.248;-6.134;2023-03-15T14:02:51;9.40;93.40
38684;DHT22;24910;53.248;-6.134;2023-03-15T14:05:24;9.40;93.40
38684;DHT22;24910;53.248;-6.134;2023-03-15T14:07:57;9.40;93.50
38684;DHT22;24910;53.248;-6.134;2023-03-15T14:10:30;9.50;93.50
38684;DHT22;24910;53.248;-6.134;2023-03-15T14:13:15;9.50;93.60
38684;DHT22;24910;53.248;-6.134;2023-03-15T14:15:48;9.50;93.60
38684;DHT22;24910;53.248;-6.134;2023-03-15T14:18:22;9.50;93.70
38684;DHT22;24910;53.248;-6.134;2023-03-15T14:20:56;9.50;93.70
38684;DHT22;24910;53.248;-6.134;2023-03-15T14:23:27;9.50;93.80
38684;DHT22;24910;53.248;-6.134;2023-03-15T14:26:05;9.50;93.90
38684;DHT22;24910;53.248;-6.134;2023-03-15T14:28:35;9.50;93.90
38684;DHT22;24910;53.248;-6.134;2023-03-15T14:31:04;9.60;94.00
38684;DHT22;24910;53.248;-6.134;2023-03-15T14:33:37;9.60;94.00
38684;DHT22;24910;53.248;-6.134;2023-03-15T14:36:20;9.60;94.10
38684;DHT22;24910;53.248;-6.134;2023-03-15T14:38:52;9.60;94.10
38684;DHT22;24910;53.248;-6.134;2023-03-15T14:41:24;9.60;94.20
38684;DHT22;24910;53.248;-6.134;2023-03-15T14:43:58;9.70;94.20
38684;DHT22;24910;53.248;-6.134;2023-03-15T14:46:29;9.70;94.20
38684;DHT22;24910;53.248;-6.134;2023-03-15T14:49:00;9.80;94.20
38684;DHT22;24910;53.248;-6.134;2023-03-15T14:51:30;9.80;94.20
38684;DHT22;24910;53.248;-6.134;2023-03-15T14:53:59;9.80;94.30
38684;DHT22;24910;53.248;-6.134;2023-03-15T14:56:28;9.80;94.30
38684;DHT22;24910;53.248;-6.134;2023-03-15T14:58:57;9.80;94.30
38684;DHT22;24910;53.248;-6.134;2023-03-15T15:01:30;9.80;94.30
38684;DHT22;24910;53.248;-6.134;2023-03-15T15:04:02;9.90;94.40
38684;DHT22;24910;53.248;-6.134;2023-03-15T15:06:31;9.80;94.40
38684;DHT22;24910;53.248;-6.134;2023-03-15T15:09:04;9.90;94.50
38684;DHT22;24910;53.248;-6.134;2023-03-15T15:11:33;9.90;94.50
38684;DHT22;24910;53.248;-6.134;2023-03-15T15:14:02;9.90;94.50
38684;DHT22;24910;53.248;-6.134;2023-03-15T15:16:31;9.80;94.50
38684;DHT22;24910;53.248;-6.134;2023-03-15T15:19:02;9.90;94.60
38684;DHT22;24910;53.248;-6.134;2023-03-15T15:21:31;9.90;94.60
38684;DHT22;24910;53.248;-6.134;2023-03-15T15:24:01;9.90;94.60
38684;DHT22;24910;53.248;-6.134;2023-03-15T15:26:31;9.90;94.60
38684;DHT22;24910;53.248;-6.134;2023-03-15T15:29:01;9.90;94.60
38684;DHT22;24910;53.248;-6.134;2023-03-15T15:31:30;9.90;94.60
38684;DHT22;24910;53.248;-6.134;2023-03-15T15:34:02;9.90;94.60
38684;DHT22;24910;53.248;-6.134;2023-03-15T15:36:33;10.00;94.70
38684;DHT22;24910;53.248;-6.134;2023-03-15T15:39:05;10.00;94.70
38684;DHT22;24910;53.248;-6.134;2023-03-15T15:41:38;10.00;94.70
38684;DHT22;24910;53.248;-6.134;2023-03-15T15:44:11;10.00;94.70
38684;DHT22;24910;53.248;-6.134;2023-03-15T15:46:43;10.00;94.70
38684;DHT22;24910;53.248;-6.134;2023-03-15T15:49:13;10.00;94.70
38684;DHT22;24910;53.248;-6.134;2023-03-15T15:51:44;10.10;94.80
38684;DHT22;24910;53.248;-6.134;2023-03-15T15:54:17;10.10;94.80
38684;DHT22;24910;53.248;-6.134;2023-03-15T15:56:47;10.10;94.80
38684;DHT22;24910;53.248;-6.134;2023-03-15T15:59:17;10.10;94.80
38684;DHT22;24910;53.248;-6.134;2023-03-15T16:01:47;10.10;94.70
38684;DHT22;24910;53.248;-6.134;2023-03-15T16:04:31;10.20;94.70
38684;DHT22;24910;53.248;-6.134;2023-03-15T16:07:01;10.20;94.70
38684;DHT22;24910;53.248;-6.134;2023-03-15T16:09:32;10.20;94.70
38684;DHT22;24910;53.248;-6.134;2023-03-15T16:12:10;10.20;94.80
38684;DHT22;24910;53.248;-6.134;2023-03-15T16:14:40;10.20;94.80
38684;DHT22;24910;53.248;-6.134;2023-03-15T16:17:10;10.20;94.90
38684;DHT22;24910;53.248;-6.134;2023-03-15T16:19:41;10.20;94.90